Time;durP1;ratioP1;P1;durP2;ratioP2;P2;SDS_P1;SDS_P2;PMS_P1;PMS_P2;Temp;Humidity;BMP_temperature;BMP_pressure;BME280_temperature;BME280_humidity;BME280_pressure;Samples;Min_cycle;Max_cycle;Signal;HPM_P1;HPM_P2
2022/03/04 00:00:44;;;;;;;11.70;9.25;;;;;;;4.38;64.01;102088.78;5016430;28;20063;-78
2022/03/04 00:03:11;;;;;;;11.95;9.07;;;;;;;4.39;63.94;102082.75;5036037;28;20310;-77
2022/03/04 00:05:37;;;;;;;12.82;9.05;;;;;;;4.35;63.93;102079.28;5036330;28;20160;-77
2022/03/04 00:08:02;;;;;;;10.77;8.18;;;;;;;4.37;64.10;102082.75;5035927;28;20069;-78
2022/03/04 00:10:28;;;;;;;11.50;8.73;;;;;;;4.35;64.02;102087.06;5030813;28;20096;-77
2022/03/04 00:12:54;;;;;;;8.60;7.68;;;;;;;4.35;63.85;102084.47;5032270;28;20049;-77
2022/03/04 00:15:20;;;;;;;12.38;8.70;;;;;;;4.33;63.82;102091.38;5035144;28;20284;-78
2022/03/04 00:17:45;;;;;;;12.10;8.68;;;;;;;4.32;64.16;102093.97;5036326;28;20279;-77
2022/03/04 00:20:11;;;;;;;13.88;8.82;;;;;;;4.31;64.02;102090.50;5035347;28;20319;-77
2022/03/04 00:22:36;;;;;;;14.98;9.68;;;;;;;4.28;63.91;102090.47;5035055;28;20261;-77
2022/03/04 00:25:03;;;;;;;10.55;8.60;;;;;;;4.29;64.03;102091.34;5018266;28;20030;-77
2022/03/04 00:27:28;;;;;;;13.05;8.75;;;;;;;4.26;64.17;102097.41;5035122;28;20061;-77
2022/03/04 00:29:54;;;;;;;10.48;8.40;;;;;;;4.25;64.14;102093.06;5035251;28;20097;-77
2022/03/04 00:32:19;;;;;;;11.70;7.90;;;;;;;4.24;64.30;102091.34;5013879;28;20076;-77
2022/03/04 00:34:44;;;;;;;15.95;9.10;;;;;;;4.23;64.59;102090.44;5034581;28;20080;-78
2022/03/04 00:37:10;;;;;;;12.35;8.57;;;;;;;4.22;64.36;102093.03;5035050;28;20052;-78
2022/03/04 00:39:35;;;;;;;12.27;9.00;;;;;;;4.21;64.43;102092.16;5035497;28;20523;-78
2022/03/04 00:42:01;;;;;;;11.20;8.18;;;;;;;4.21;64.40;102089.56;5018140;28;20277;-77
2022/03/04 00:44:26;;;;;;;11.68;8.80;;;;;;;4.18;64.40;102084.38;5036087;28;20112;-77
2022/03/04 00:46:52;;;;;;;10.57;8.25;;;;;;;4.15;64.52;102094.72;5035632;28;20041;-77
2022/03/04 00:49:17;;;;;;;12.98;9.57;;;;;;;4.12;64.22;102099.88;5001415;28;20348;-77
2022/03/04 00:51:43;;;;;;;11.05;8.27;;;;;;;4.11;64.51;102102.47;5037537;28;20364;-77
2022/03/04 00:54:09;;;;;;;12.70;9.05;;;;;;;4.07;64.39;102092.94;5036781;28;20048;-77
2022/03/04 00:56:36;;;;;;;14.98;9.88;;;;;;;4.04;64.61;102101.59;5019780;28;20458;-77
2022/03/04 00:59:02;;;;;;;14.77;9.30;;;;;;;4.02;64.79;102108.44;5037213;28;20261;-77
2022/03/04 01:01:27;;;;;;;13.73;9.35;;;;;;;4.00;65.01;102107.59;5037016;28;20210;-77
2022/03/04 01:03:53;;;;;;;14.45;9.20;;;;;;;3.98;64.94;102109.28;5036560;28;20221;-77
2022/03/04 01:06:18;;;;;;;16.55;9.82;;;;;;;3.97;64.99;102111.03;4999645;28;20065;-77
2022/03/04 01:08:44;;;;;;;13.15;8.82;;;;;;;3.96;64.96;102100.66;5024335;28;20440;-77
2022/03/04 01:11:09;;;;;;;14.90;10.32;;;;;;;3.95;64.99;102106.72;5019050;28;20033;-77
2022/03/04 01:13:35;;;;;;;14.30;10.15;;;;;;;3.91;64.85;102100.63;5037479;28;20033;-77
2022/03/04 01:16:00;;;;;;;14.45;9.48;;;;;;;3.89;64.87;102094.53;5036855;28;20037;-77
2022/03/04 01:18:26;;;;;;;14.60;9.90;;;;;;;3.87;65.04;102096.25;5018801;28;20047;-77
2022/03/04 01:20:51;;;;;;;12.60;9.75;;;;;;;3.84;65.15;102099.72;5036792;28;20052;-77
2022/03/04 01:23:17;;;;;;;14.15;9.50;;;;;;;3.84;65.32;102096.25;5036551;28;20029;-77
2022/03/04 01:25:42;;;;;;;13.20;9.48;;;;;;;3.82;65.39;102097.94;5037439;28;20044;-77
2022/03/04 01:28:08;;;;;;;12.65;8.80;;;;;;;3.82;65.39;102100.53;5036085;28;20045;-78
2022/03/04 01:30:33;;;;;;;11.10;8.57;;;;;;;3.81;65.42;102099.69;5019390;28;20052;-77
2022/03/04 01:32:58;;;;;;;12.05;8.93;;;;;;;3.79;65.49;102101.41;5018694;28;20040;-77
2022/03/04 01:35:24;;;;;;;12.15;8.75;;;;;;;3.78;65.29;102101.38;5036676;28;20364;-78
2022/03/04 01:37:49;;;;;;;13.52;9.63;;;;;;;3.75;65.31;102097.06;5037002;28;20249;-78
2022/03/04 01:40:15;;;;;;;14.88;10.30;;;;;;;3.72;65.29;102090.97;5036870;28;20393;-77
2022/03/04 01:42:41;;;;;;;14.35;9.23;;;;;;;3.69;65.54;102094.41;5037220;28;20048;-77
2022/03/04 01:45:09;;;;;;;13.57;10.18;;;;;;;3.63;65.57;102091.75;5034990;28;20033;-77
2022/03/04 01:47:40;;;;;;;15.90;11.63;;;;;;;3.62;65.93;102097.78;5037383;28;20041;-78
2022/03/04 01:50:06;;;;;;;16.52;11.63;;;;;;;3.55;65.95;102099.47;5032522;28;20041;-77
2022/03/04 01:52:31;;;;;;;16.35;11.13;;;;;;;3.52;65.80;102096.84;5018803;28;20075;-77
2022/03/04 01:54:56;;;;;;;14.68;10.38;;;;;;;3.52;66.14;102102.03;5035579;28;20092;-77
2022/03/04 01:57:22;;;;;;;15.38;11.48;;;;;;;3.50;66.13;102102.88;5019104;28;20279;-77
2022/03/04 01:59:47;;;;;;;14.43;10.38;;;;;;;3.48;66.38;102089.91;5035629;28;20060;-77
2022/03/04 02:02:13;;;;;;;12.10;9.20;;;;;;;3.47;66.54;102093.34;5018570;28;20303;-77
2022/03/04 02:04:38;;;;;;;17.27;11.57;;;;;;;3.44;66.43;102091.63;5017567;28;20037;-77
2022/03/04 02:07:04;;;;;;;18.02;11.50;;;;;;;3.43;66.42;102092.44;5035511;28;20049;-77
2022/03/04 02:09:30;;;;;;;12.20;9.55;;;;;;;3.42;66.47;102084.66;5036342;28;20353;-77
2022/03/04 02:11:55;;;;;;;14.60;10.00;;;;;;;3.40;66.59;102086.38;5018187;28;20045;-77
2022/03/04 02:14:21;;;;;;;13.95;9.82;;;;;;;3.39;66.88;102087.25;5018248;28;20033;-77
2022/03/04 02:16:49;;;;;;;15.23;10.38;;;;;;;3.39;66.67;102082.06;5038876;28;20050;-77
2022/03/04 02:19:16;;;;;;;14.00;10.10;;;;;;;3.37;66.54;102081.19;5039663;28;20041;-77
2022/03/04 02:21:54;;;;;;;14.63;9.80;;;;;;;3.34;66.67;102086.34;5022446;28;20296;-77
2022/03/04 02:24:22;;;;;;;15.77;10.77;;;;;;;3.33;66.80;102085.47;5039341;28;20056;-77
2022/03/04 02:26:49;;;;;;;13.38;10.52;;;;;;;3.30;66.78;102085.44;5039183;28;20382;-77
2022/03/04 02:29:14;;;;;;;14.25;10.07;;;;;;;3.31;66.90;102086.28;5038799;28;20052;-77
2022/03/04 02:31:40;;;;;;;14.32;9.88;;;;;;;3.26;66.89;102084.53;5039934;28;20033;-77
2022/03/04 02:34:06;;;;;;;19.33;12.18;;;;;;;3.22;67.02;102085.38;5038674;28;20056;-77
2022/03/04 02:36:32;;;;;;;20.48;11.32;;;;;;;3.21;66.96;102073.25;5039565;28;20280;-77
2022/03/04 02:38:57;;;;;;;19.30;11.65;;;;;;;3.16;67.16;102077.53;5039152;28;20041;-77
2022/03/04 02:41:23;;;;;;;19.27;11.20;;;;;;;3.16;67.44;102069.75;5039137;28;20100;-77
2022/03/04 02:43:48;;;;;;;17.05;11.07;;;;;;;3.15;67.50;102074.94;5039540;28;20350;-77
2022/03/04 02:46:14;;;;;;;15.82;11.05;;;;;;;3.15;67.45;102065.44;5038980;28;20045;-78
2022/03/04 02:48:40;;;;;;;14.82;10.27;;;;;;;3.14;67.48;102068.03;5021230;28;20052;-77
2022/03/04 02:51:06;;;;;;;15.30;10.88;;;;;;;3.13;67.41;102061.97;5038711;28;20045;-77
2022/03/04 02:53:31;;;;;;;15.63;10.30;;;;;;;3.12;67.69;102068.00;5039318;28;20036;-77
2022/03/04 02:55:57;;;;;;;14.13;10.15;;;;;;;3.10;67.39;102069.72;5020809;28;20100;-77
2022/03/04 02:58:22;;;;;;;15.98;10.63;;;;;;;3.08;67.42;102064.50;5038352;28;20041;-77
2022/03/04 03:00:48;;;;;;;17.60;11.45;;;;;;;3.05;67.67;102066.19;5021545;28;20076;-77
2022/03/04 03:03:13;;;;;;;17.77;12.02;;;;;;;3.00;68.08;102058.41;5038890;28;20057;-77
2022/03/04 03:05:39;;;;;;;19.77;11.57;;;;;;;2.95;67.94;102070.44;5021085;28;20060;-77
2022/03/04 03:08:04;;;;;;;21.70;13.60;;;;;;;2.87;68.16;102060.00;5032061;28;20033;-77
2022/03/04 03:10:31;;;;;;;21.27;12.98;;;;;;;2.85;68.42;102059.09;5038667;28;20291;-77
2022/03/04 03:12:57;;;;;;;17.80;11.50;;;;;;;2.86;68.47;102059.97;5038696;28;20046;-77
2022/03/04 03:15:22;;;;;;;19.48;12.18;;;;;;;2.85;68.67;102068.59;5038282;28;20049;-77
2022/03/04 03:17:47;;;;;;;20.05;12.02;;;;;;;2.86;68.58;102062.56;5021081;28;20332;-77
2022/03/04 03:20:13;;;;;;;16.88;10.57;;;;;;;2.89;68.69;102062.56;5020951;28;20079;-77
2022/03/04 03:22:38;;;;;;;14.30;10.10;;;;;;;2.92;68.56;102066.94;5038892;28;20273;-77
2022/03/04 03:25:04;;;;;;;14.52;9.93;;;;;;;2.93;68.35;102060.88;5020248;28;20063;-77
2022/03/04 03:27:30;;;;;;;15.82;10.18;;;;;;;2.94;68.43;102060.91;5037534;28;20077;-77
2022/03/04 03:29:55;;;;;;;17.38;9.98;;;;;;;2.95;68.40;102062.66;5038559;28;20045;-77
2022/03/04 03:32:21;;;;;;;14.23;9.57;;;;;;;2.96;68.26;102063.53;5023287;28;20313;-76
2022/03/04 03:34:46;;;;;;;16.77;9.95;;;;;;;2.96;68.19;102066.09;5022822;28;20083;-76
2022/03/04 03:37:12;;;;;;;17.27;10.73;;;;;;;2.95;67.95;102064.34;5039970;28;20070;-76
2022/03/04 03:39:37;;;;;;;16.70;10.30;;;;;;;2.92;68.28;102067.78;5039080;28;20049;-78
2022/03/04 03:42:04;;;;;;;15.93;10.75;;;;;;;2.89;68.06;102070.34;5037878;28;20076;-78
2022/03/04 03:44:30;;;;;;;16.83;10.32;;;;;;;2.86;68.21;102060.84;5020685;28;20021;-78
2022/03/04 03:46:56;;;;;;;17.70;10.98;;;;;;;2.86;68.36;102070.34;5038479;28;20090;-78
2022/03/04 03:49:22;;;;;;;14.07;9.77;;;;;;;2.85;68.15;102066.84;5038131;28;20065;-78
2022/03/04 03:51:48;;;;;;;16.92;10.07;;;;;;;2.84;68.22;102059.97;5038190;28;20111;-78
2022/03/04 03:54:14;;;;;;;16.55;10.18;;;;;;;2.83;68.15;102062.53;5037871;28;20044;-78
2022/03/04 03:56:39;;;;;;;17.00;11.25;;;;;;;2.82;68.43;102069.44;5020033;28;20041;-78
2022/03/04 03:59:04;;;;;;;14.93;11.13;;;;;;;2.80;68.70;102065.97;5019951;28;20029;-78
2022/03/04 04:01:30;;;;;;;17.33;10.75;;;;;;;2.78;68.50;102067.63;5020731;28;20124;-78
2022/03/04 04:03:55;;;;;;;18.35;11.88;;;;;;;2.75;68.64;102070.22;5037685;28;20037;-78
2022/03/04 04:06:21;;;;;;;16.17;10.93;;;;;;;2.73;68.56;102076.19;5020032;28;20056;-78
2022/03/04 04:08:46;;;;;;;14.88;10.15;;;;;;;2.71;68.70;102076.22;5037995;28;20044;-78
2022/03/04 04:11:12;;;;;;;20.65;12.52;;;;;;;2.64;68.72;102070.09;5019177;28;20128;-78
2022/03/04 04:13:38;;;;;;;17.98;11.43;;;;;;;2.61;69.01;102077.78;5038091;28;20344;-78
2022/03/04 04:16:03;;;;;;;17.77;11.93;;;;;;;2.58;69.08;102079.47;5037530;28;20471;-78
2022/03/04 04:18:29;;;;;;;20.85;12.10;;;;;;;2.53;69.16;102076.84;5037947;28;20104;-77
2022/03/04 04:20:54;;;;;;;18.40;11.35;;;;;;;2.52;69.34;102077.69;5037104;28;21116;-78
2022/03/04 04:23:20;;;;;;;21.73;13.38;;;;;;;2.46;69.30;102083.66;5037891;28;20040;-78
2022/03/04 04:25:45;;;;;;;16.17;11.40;;;;;;;2.46;69.61;102083.66;5003562;28;20040;-78
2022/03/04 04:28:10;;;;;;;18.80;12.35;;;;;;;2.46;69.57;102085.38;5036953;28;20049;-78
2022/03/04 04:30:36;;;;;;;20.05;11.98;;;;;;;2.43;69.56;102088.78;5019806;28;20037;-78
2022/03/04 04:33:02;;;;;;;21.55;12.10;;;;;;;2.44;69.68;102090.53;5019639;28;20327;-78
2022/03/04 04:35:27;;;;;;;21.27;12.35;;;;;;;2.43;69.71;102090.50;5037068;28;20045;-78
2022/03/04 04:37:52;;;;;;;16.90;11.10;;;;;;;2.43;69.83;102093.09;5036899;28;20037;-78
2022/03/04 04:40:18;;;;;;;17.23;11.35;;;;;;;2.42;69.78;102093.91;5018440;28;20037;-78
2022/03/04 04:42:44;;;;;;;18.10;10.95;;;;;;;2.41;69.87;102093.06;5037545;28;20435;-78
2022/03/04 04:45:09;;;;;;;20.38;12.68;;;;;;;2.39;69.98;102084.41;5036984;28;20078;-78
2022/03/04 04:47:35;;;;;;;20.33;11.23;;;;;;;2.40;69.90;102090.44;5036862;28;20096;-78
2022/03/04 04:50:01;;;;;;;19.83;11.65;;;;;;;2.39;70.31;102083.56;5035756;28;20068;-78
2022/03/04 04:52:26;;;;;;;22.65;11.95;;;;;;;2.37;70.04;102088.72;5036498;28;20095;-78
2022/03/04 04:54:52;;;;;;;16.60;11.50;;;;;;;2.38;70.12;102082.66;5019395;28;20039;-78
2022/03/04 04:57:17;;;;;;;21.17;12.50;;;;;;;2.38;70.32;102093.00;5036496;28;20105;-78
2022/03/04 04:59:43;;;;;;;19.25;12.88;;;;;;;2.35;70.23;102098.16;5037637;28;20096;-78
2022/03/04 05:02:08;;;;;;;23.05;13.57;;;;;;;2.33;70.35;102094.69;5036832;28;20040;-78
2022/03/04 05:04:34;;;;;;;18.33;12.90;;;;;;;2.33;70.21;102093.81;5019692;28;20025;-78
2022/03/04 05:06:59;;;;;;;18.80;12.15;;;;;;;2.33;70.38;102097.28;5036234;28;20041;-78
2022/03/04 05:09:24;;;;;;;16.17;10.90;;;;;;;2.34;70.33;102099.00;5036856;28;20352;-78
2022/03/04 05:11:50;;;;;;;18.70;11.88;;;;;;;2.34;70.40;102096.41;5018844;28;20041;-78
2022/03/04 05:14:15;;;;;;;22.88;13.05;;;;;;;2.34;70.08;102092.97;5037440;28;20068;-78
2022/03/04 05:16:40;;;;;;;20.80;12.07;;;;;;;2.35;70.20;102093.00;5037145;28;20033;-77
2022/03/04 05:19:06;;;;;;;15.43;10.63;;;;;;;2.36;70.26;102096.44;5019245;28;20022;-78
2022/03/04 05:21:32;;;;;;;15.95;10.73;;;;;;;2.36;70.15;102102.47;5037010;28;20053;-78
2022/03/04 05:24:00;;;;;;;16.58;10.82;;;;;;;2.37;70.20;102099.03;5017996;28;20080;-78
2022/03/04 05:26:30;;;;;;;18.83;10.97;;;;;;;2.39;70.15;102097.34;5035715;28;20084;-78
2022/03/04 05:28:57;;;;;;;17.33;11.20;;;;;;;2.39;70.11;102102.50;5035713;28;20049;-77
2022/03/04 05:31:23;;;;;;;20.20;11.95;;;;;;;2.40;69.93;102105.97;5034742;28;20037;-78
2022/03/04 05:33:49;;;;;;;15.52;10.00;;;;;;;2.39;69.96;102093.91;5035785;28;20048;-78
2022/03/04 05:36:14;;;;;;;14.88;10.43;;;;;;;2.40;69.86;102104.28;5018698;28;20045;-78
2022/03/04 05:38:40;;;;;;;16.15;10.57;;;;;;;2.40;69.83;102104.28;5018599;28;20221;-78
2022/03/04 05:41:06;;;;;;;15.73;10.45;;;;;;;2.36;69.88;102097.28;5014168;28;20110;-78
2022/03/04 05:43:31;;;;;;;22.02;13.60;;;;;;;2.33;69.86;102104.13;5036291;28;20045;-78
2022/03/04 05:45:56;;;;;;;20.80;12.65;;;;;;;2.31;69.80;102104.16;5036756;28;20104;-78
2022/03/04 05:48:22;;;;;;;21.60;11.90;;;;;;;2.28;69.92;102104.09;5036870;28;20037;-78
2022/03/04 05:50:47;;;;;;;20.15;12.02;;;;;;;2.26;70.07;102108.38;5001414;28;20041;-78
2022/03/04 05:53:13;;;;;;;19.70;12.13;;;;;;;2.26;70.12;102106.66;5022875;28;20037;-78
2022/03/04 05:55:39;;;;;;;17.80;11.18;;;;;;;2.26;70.18;102108.38;5039515;28;20296;-78
2022/03/04 05:58:04;;;;;;;19.90;12.25;;;;;;;2.24;70.08;102116.09;5039886;28;20365;-78
2022/03/04 06:00:30;;;;;;;20.40;12.00;;;;;;;2.24;70.09;102116.09;5023090;28;20417;-78
2022/03/04 06:02:55;;;;;;;19.98;11.82;;;;;;;2.24;70.19;102115.25;5040486;28;20048;-78
2022/03/04 06:05:24;;;;;;;18.30;12.50;;;;;;;2.22;69.91;102119.50;5039952;28;20112;-78
2022/03/04 06:07:49;;;;;;;19.08;11.65;;;;;;;2.20;70.18;102119.50;5020183;28;20045;-78
2022/03/04 06:10:15;;;;;;;20.95;12.27;;;;;;;2.18;70.08;102116.00;5035459;28;20044;-78
2022/03/04 06:12:40;;;;;;;22.50;11.98;;;;;;;2.16;70.19;102128.03;5038940;28;20052;-78
2022/03/04 06:15:06;;;;;;;21.08;11.30;;;;;;;2.17;70.23;102128.94;5037567;28;20038;-78
2022/03/04 06:17:32;;;;;;;18.88;10.93;;;;;;;2.17;70.37;102126.34;5045635;28;20047;-78
2022/03/04 06:19:57;;;;;;;22.15;13.23;;;;;;;2.16;70.30;102129.75;5051238;28;20087;-78
2022/03/04 06:22:22;;;;;;;18.83;12.65;;;;;;;2.15;70.53;102133.19;5038711;28;20059;-77
2022/03/04 06:24:48;;;;;;;22.75;13.38;;;;;;;2.11;70.45;102133.16;5048044;28;20281;-77
2022/03/04 06:27:14;;;;;;;22.70;13.43;;;;;;;2.08;70.66;102134.81;5038658;28;20419;-78
2022/03/04 06:29:39;;;;;;;22.48;12.52;;;;;;;2.06;70.94;102131.34;5039480;28;20352;-78
2022/03/04 06:32:04;;;;;;;18.20;11.68;;;;;;;2.07;70.97;102135.66;5008818;28;20041;-78
2022/03/04 06:34:30;;;;;;;23.08;12.63;;;;;;;2.08;70.99;102127.94;5041020;28;20049;-78
2022/03/04 06:36:55;;;;;;;20.40;12.43;;;;;;;2.04;70.39;102131.31;5019845;28;20049;-78
2022/03/04 06:39:20;;;;;;;21.55;13.02;;;;;;;2.05;70.64;102147.69;5035308;28;20064;-78
2022/03/04 06:41:48;;;;;;;20.33;12.73;;;;;;;2.01;70.70;102141.59;5037811;28;20045;-77
2022/03/04 06:44:13;;;;;;;20.33;12.30;;;;;;;2.03;70.80;102146.81;5019222;28;20063;-78
2022/03/04 06:46:39;;;;;;;18.48;11.48;;;;;;;2.04;70.67;102162.34;5036765;28;20403;-78
2022/03/04 06:49:04;;;;;;;23.98;12.88;;;;;;;2.02;70.86;102153.69;5003102;28;20029;-78
2022/03/04 06:51:30;;;;;;;20.35;11.93;;;;;;;2.05;71.01;102156.31;5037754;28;20569;-78
2022/03/04 06:53:55;;;;;;;20.98;13.02;;;;;;;2.06;70.67;102157.19;5038114;28;20064;-77
2022/03/04 06:56:20;;;;;;;22.77;12.13;;;;;;;2.07;70.91;102161.50;5020575;28;20108;-77
2022/03/04 06:58:46;;;;;;;15.50;10.68;;;;;;;2.09;70.80;102162.38;5020252;28;20364;-78
2022/03/04 07:01:11;;;;;;;16.77;10.95;;;;;;;2.10;70.87;102165.00;5019686;28;20037;-78
2022/03/04 07:03:37;;;;;;;16.77;10.75;;;;;;;2.13;70.76;102160.72;5036518;28;20029;-77
2022/03/04 07:06:03;;;;;;;15.55;10.13;;;;;;;2.14;70.70;102165.06;5037980;28;20039;-77
2022/03/04 07:08:30;;;;;;;16.23;10.48;;;;;;;2.14;70.61;102165.91;5037286;28;20048;-78
2022/03/04 07:10:55;;;;;;;16.77;10.32;;;;;;;2.12;70.27;102167.63;5037792;28;20045;-77
2022/03/04 07:13:21;;;;;;;17.98;10.57;;;;;;;2.13;70.73;102169.38;5037831;28;20049;-78
2022/03/04 07:15:48;;;;;;;18.80;9.65;;;;;;;2.14;70.73;102181.44;5037875;28;20048;-78
2022/03/04 07:18:16;;;;;;;17.40;10.98;;;;;;;2.14;70.69;102185.72;5037839;28;20399;-78
2022/03/04 07:20:42;;;;;;;23.00;11.73;;;;;;;2.14;70.76;102186.59;5003445;28;20033;-77
2022/03/04 07:23:07;;;;;;;17.80;11.55;;;;;;;2.13;70.64;102183.97;5019543;28;20079;-78
2022/03/04 07:25:33;;;;;;;17.27;11.10;;;;;;;2.12;70.93;102183.13;5018764;28;20076;-78
2022/03/04 07:27:58;;;;;;;19.52;11.93;;;;;;;2.11;71.00;102190.00;5018364;28;20135;-78
2022/03/04 07:30:24;;;;;;;20.35;12.10;;;;;;;2.12;70.95;102185.69;5003003;28;20041;-78
2022/03/04 07:32:49;;;;;;;21.10;12.02;;;;;;;2.10;71.24;102188.25;5028318;28;20092;-78
2022/03/04 07:35:15;;;;;;;25.67;14.50;;;;;;;2.09;71.29;102193.41;5035354;28;20072;-78
2022/03/04 07:37:42;;;;;;;27.73;14.65;;;;;;;2.07;71.64;102187.34;5036647;28;20037;-77
2022/03/04 07:40:09;;;;;;;27.65;14.30;;;;;;;1.99;72.33;102182.06;5027033;28;20361;-78
2022/03/04 07:42:35;;;;;;;23.15;13.90;;;;;;;1.98;72.38;102182.03;4999425;28;20025;-78
2022/03/04 07:45:01;;;;;;;26.77;15.40;;;;;;;1.96;72.46;102179.41;5032529;28;20140;-77
2022/03/04 07:47:26;;;;;;;28.48;16.33;;;;;;;1.98;72.66;102187.19;5034966;28;20087;-78
2022/03/04 07:49:51;;;;;;;27.60;15.75;;;;;;;1.93;73.07;102184.56;5033081;28;20045;-78
2022/03/04 07:52:17;;;;;;;27.40;16.23;;;;;;;1.89;73.14;102185.31;5035359;28;20336;-78
2022/03/04 07:54:43;;;;;;;29.25;16.70;;;;;;;1.91;73.45;102183.63;5033557;28;20432;-78
2022/03/04 07:57:09;;;;;;;24.65;15.60;;;;;;;1.91;73.24;102181.03;5015950;28;20033;-78
2022/03/04 07:59:34;;;;;;;26.23;15.18;;;;;;;1.94;73.18;102186.28;5001834;28;20450;-78
2022/03/04 08:02:00;;;;;;;26.00;15.20;;;;;;;1.97;73.35;102188.91;5036193;28;20043;-77
2022/03/04 08:04:26;;;;;;;30.77;17.05;;;;;;;1.97;73.59;102186.34;5035312;28;20101;-78
2022/03/04 08:06:51;;;;;;;26.50;15.23;;;;;;;1.95;73.59;102195.78;5000857;28;20041;-78
2022/03/04 08:09:16;;;;;;;27.38;15.80;;;;;;;1.98;73.58;102195.81;5030113;28;20025;-77
2022/03/04 08:11:44;;;;;;;36.10;17.35;;;;;;;2.00;73.66;102199.31;5018499;28;20040;-78
2022/03/04 08:14:09;;;;;;;33.53;16.58;;;;;;;1.99;74.01;102202.72;5034609;28;20383;-77
2022/03/04 08:16:35;;;;;;;32.58;17.75;;;;;;;2.01;74.17;102211.38;5036412;28;20060;-78
2022/03/04 08:19:03;;;;;;;27.30;16.95;;;;;;;2.01;74.37;102208.78;5024282;28;20037;-78
2022/03/04 08:21:28;;;;;;;27.55;16.13;;;;;;;2.05;74.11;102215.75;5035464;28;20040;-77
2022/03/04 08:23:54;;;;;;;31.55;17.77;;;;;;;2.09;73.29;102214.06;5035125;28;20036;-78
2022/03/04 08:26:20;;;;;;;29.48;16.02;;;;;;;2.10;73.75;102216.69;5035330;28;20045;-77
2022/03/04 08:28:45;;;;;;;29.45;16.00;;;;;;;2.13;73.83;102215.88;5016101;28;20049;-78
2022/03/04 08:31:11;;;;;;;31.73;15.82;;;;;;;2.14;73.51;102216.75;5033486;28;20253;-78
2022/03/04 08:33:41;;;;;;;25.00;16.42;;;;;;;2.19;73.61;102207.34;5015599;28;20136;-78
2022/03/04 08:36:07;;;;;;;27.17;16.48;;;;;;;2.21;73.42;102216.00;5028960;28;20993;-77
2022/03/04 08:38:33;;;;;;;31.52;18.00;;;;;;;2.19;73.63;102213.38;5034937;28;20048;-78
2022/03/04 08:40:58;;;;;;;24.80;15.35;;;;;;;2.25;73.73;102212.63;5034685;28;20033;-79
2022/03/04 08:43:24;;;;;;;29.80;18.02;;;;;;;2.28;74.06;102210.09;5031518;28;20115;-77
2022/03/04 08:45:49;;;;;;;29.35;16.52;;;;;;;2.32;73.78;102217.03;5014753;28;20061;-78
2022/03/04 08:48:14;;;;;;;31.58;17.40;;;;;;;2.34;73.86;102212.75;4990998;28;20225;-78
2022/03/04 08:50:40;;;;;;;30.90;17.02;;;;;;;2.36;73.61;102202.44;5033341;28;20044;-78
2022/03/04 08:53:05;;;;;;;26.10;15.65;;;;;;;2.40;73.53;102206.81;5015570;28;20033;-77
2022/03/04 08:55:31;;;;;;;28.00;15.52;;;;;;;2.42;73.69;102208.59;5034204;28;20325;-78
2022/03/04 08:57:57;;;;;;;29.58;17.10;;;;;;;2.42;73.14;102206.00;5033893;28;20256;-78
2022/03/04 09:00:24;;;;;;;26.08;15.80;;;;;;;2.47;73.43;102209.53;5016371;28;20266;-78
2022/03/04 09:02:50;;;;;;;28.42;16.50;;;;;;;2.48;72.88;102208.66;5034882;28;20037;-78
2022/03/04 09:05:16;;;;;;;27.38;16.38;;;;;;;2.52;73.27;102216.47;5016930;28;20026;-78
2022/03/04 09:07:41;;;;;;;29.13;16.13;;;;;;;2.56;73.58;102208.75;5031966;28;20557;-78
2022/03/04 09:10:07;;;;;;;26.02;14.93;;;;;;;2.61;73.51;102209.72;5027850;28;20041;-78
2022/03/04 09:12:33;;;;;;;23.00;14.70;;;;;;;2.67;73.62;102215.00;5017338;28;20345;-77
2022/03/04 09:14:58;;;;;;;31.08;17.30;;;;;;;2.72;73.79;102224.53;5034485;28;20037;-77
2022/03/04 09:17:24;;;;;;;27.02;16.83;;;;;;;2.74;73.06;102221.09;5035526;28;20029;-77
2022/03/04 09:19:49;;;;;;;28.13;16.00;;;;;;;2.78;73.10;102217.69;5035429;28;20045;-77
2022/03/04 09:22:15;;;;;;;26.13;16.30;;;;;;;2.81;72.92;102214.28;5016595;28;20041;-77
2022/03/04 09:24:40;;;;;;;25.90;16.55;;;;;;;2.86;73.25;102218.69;5035926;28;20481;-77
2022/03/04 09:27:07;;;;;;;21.88;13.63;;;;;;;2.91;73.22;102217.88;5038731;28;20286;-77
2022/03/04 09:29:32;;;;;;;30.83;16.00;;;;;;;2.97;73.52;102215.38;5042952;28;20061;-78
2022/03/04 09:31:58;;;;;;;28.40;15.98;;;;;;;3.00;73.32;102215.41;5040858;28;20109;-77
2022/03/04 09:34:24;;;;;;;28.10;16.80;;;;;;;3.04;73.42;102220.66;5023043;28;20037;-77
2022/03/04 09:36:49;;;;;;;28.63;16.02;;;;;;;3.08;73.09;102218.97;5022519;28;20121;-77
2022/03/04 09:39:15;;;;;;;27.83;15.85;;;;;;;3.15;73.05;102231.13;5022303;28;20029;-77
2022/03/04 09:41:45;;;;;;;31.48;17.65;;;;;;;3.15;72.66;102220.78;5041347;28;20021;-77
2022/03/04 09:44:12;;;;;;;26.17;15.95;;;;;;;3.20;72.56;102221.72;5038062;28;20048;-78
2022/03/04 09:46:40;;;;;;;30.08;16.75;;;;;;;3.25;72.38;102226.94;5014405;28;20037;-77
2022/03/04 09:49:07;;;;;;;27.42;16.65;;;;;;;3.30;72.27;102227.84;5022343;28;20037;-77
2022/03/04 09:51:32;;;;;;;27.65;16.73;;;;;;;3.36;71.95;102232.22;5041327;28;20218;-77
2022/03/04 09:53:58;;;;;;;26.73;16.52;;;;;;;3.40;72.20;102229.72;5041307;28;20074;-77
2022/03/04 09:56:23;;;;;;;31.80;16.65;;;;;;;3.47;72.24;102233.22;5038515;28;20064;-78
2022/03/04 09:58:48;;;;;;;26.70;16.52;;;;;;;3.53;71.88;102228.13;5033812;28;20044;-77
2022/03/04 10:01:15;;;;;;;30.15;17.42;;;;;;;3.59;71.71;102230.75;5021702;28;20140;-77
2022/03/04 10:03:45;;;;;;;27.98;16.10;;;;;;;3.64;71.44;102223.91;5044098;28;20041;-77
2022/03/04 10:06:12;;;;;;;27.63;16.52;;;;;;;3.72;71.18;102241.25;5043244;28;20033;-77
2022/03/04 10:08:39;;;;;;;30.65;16.83;;;;;;;3.75;70.96;102228.34;5023564;28;20241;-77
2022/03/04 10:11:05;;;;;;;27.98;16.38;;;;;;;3.81;71.05;102218.03;5038179;28;20443;-77
2022/03/04 10:13:42;;;;;;;24.70;15.27;;;;;;;3.88;70.71;102221.56;5023402;28;20399;-77
2022/03/04 10:16:08;;;;;;;24.60;14.98;;;;;;;3.91;70.76;102219.88;5040154;28;20045;-77
2022/03/04 10:18:33;;;;;;;27.02;16.17;;;;;;;3.95;70.33;102213.84;5036388;28;20029;-77
2022/03/04 10:20:59;;;;;;;27.08;16.25;;;;;;;4.02;70.22;102214.75;5040015;28;20064;-77
2022/03/04 10:23:26;;;;;;;28.45;16.52;;;;;;;4.07;70.13;102214.78;5022776;28;20244;-77
2022/03/04 10:25:54;;;;;;;25.13;15.20;;;;;;;4.13;70.03;102215.72;5040143;28;20036;-77
2022/03/04 10:28:25;;;;;;;29.77;16.53;;;;;;;4.19;69.97;102207.13;5022631;28;20061;-77
2022/03/04 10:30:53;;;;;;;25.50;16.30;;;;;;;4.25;70.09;102220.13;5010894;28;20045;-77
2022/03/04 10:33:20;;;;;;;25.98;16.80;;;;;;;4.29;69.93;102208.91;5040164;28;20518;-77
2022/03/04 10:35:50;;;;;;;26.40;16.20;;;;;;;4.36;69.73;102213.28;5038527;28;20116;-77
2022/03/04 10:38:25;;;;;;;25.08;15.48;;;;;;;4.42;69.46;102215.94;5010541;28;20033;-77
2022/03/04 10:40:51;;;;;;;27.63;15.65;;;;;;;4.48;69.20;102209.91;5034718;28;20037;-77
2022/03/04 10:43:24;;;;;;;25.00;15.10;;;;;;;4.53;68.59;102217.72;5036654;28;20052;-77
2022/03/04 10:46:04;;;;;;;24.42;16.08;;;;;;;4.58;68.67;102214.31;5019152;28;20017;-78
2022/03/04 10:48:31;;;;;;;24.38;15.23;;;;;;;4.64;68.45;102210.88;5032720;28;20060;-78
2022/03/04 10:51:04;;;;;;;29.92;16.23;;;;;;;4.71;68.28;102212.66;5018860;28;20033;-78
2022/03/04 10:53:31;;;;;;;22.02;14.85;;;;;;;4.79;68.01;102216.16;5030115;28;20077;-78
2022/03/04 10:55:58;;;;;;;27.10;16.08;;;;;;;4.84;67.99;102211.00;5019098;28;20352;-77
2022/03/04 10:58:24;;;;;;;25.27;15.50;;;;;;;4.87;68.17;102213.59;5037576;28;20041;-78
2022/03/04 11:01:00;;;;;;;33.30;15.50;;;;;;;4.92;67.76;102209.28;5037885;28;20083;-78
2022/03/04 11:03:28;;;;;;;27.70;15.88;;;;;;;4.96;67.54;102212.78;5039334;28;20116;-78
2022/03/04 11:05:59;;;;;;;24.23;15.38;;;;;;;5.03;67.32;102211.09;5022903;28;20034;-77
2022/03/04 11:08:25;;;;;;;27.38;15.27;;;;;;;5.08;67.33;102215.44;5032591;28;20037;-78
2022/03/04 11:10:51;;;;;;;27.67;15.10;;;;;;;5.15;67.10;102209.41;5029944;28;20033;-78
2022/03/04 11:13:17;;;;;;;26.10;14.77;;;;;;;5.22;66.52;102199.03;5035386;28;20021;-78